sensor_id;sensor_type;location;lat;lon;timestamp;pressure;altitude;pressure_sealevel;temperature;humidity
66196;BME280;53000;45.182;5.736;2022-10-22T00:02:06;99223.31;;;18.65;71.48
66196;BME280;53000;45.182;5.736;2022-10-22T00:04:35;99216.75;;;18.66;71.34
66196;BME280;53000;45.182;5.736;2022-10-22T00:07:01;99239.53;;;18.66;71.48
66196;BME280;53000;45.182;5.736;2022-10-22T00:09:26;99259.34;;;18.68;71.22
66196;BME280;53000;45.182;5.736;2022-10-22T00:11:52;99230.25;;;18.67;71.72
66196;BME280;53000;45.182;5.736;2022-10-22T00:14:18;99246.69;;;18.67;71.39
66196;BME280;53000;45.182;5.736;2022-10-22T00:16:43;99242.66;;;18.70;71.01
66196;BME280;53000;45.182;5.736;2022-10-22T00:19:09;99246.25;;;18.70;71.15
66196;BME280;53000;45.182;5.736;2022-10-22T00:21:38;99244.13;;;18.72;71.28
66196;BME280;53000;45.182;5.736;2022-10-22T00:24:03;99244.97;;;18.73;71.58
66196;BME280;53000;45.182;5.736;2022-10-22T00:26:29;99251.28;;;18.73;71.38
66196;BME280;53000;45.182;5.736;2022-10-22T00:28:56;99259.50;;;18.73;71.42
66196;BME280;53000;45.182;5.736;2022-10-22T00:31:25;99276.78;;;18.74;71.30
66196;BME280;53000;45.182;5.736;2022-10-22T00:33:50;99266.91;;;18.73;71.37
66196;BME280;53000;45.182;5.736;2022-10-22T00:36:18;99246.63;;;18.74;71.35
66196;BME280;53000;45.182;5.736;2022-10-22T00:38:43;99232.09;;;18.73;71.39
66196;BME280;53000;45.182;5.736;2022-10-22T00:41:12;99247.94;;;18.71;71.44
66196;BME280;53000;45.182;5.736;2022-10-22T00:43:58;99268.81;;;18.72;71.62
66196;BME280;53000;45.182;5.736;2022-10-22T00:46:24;99263.75;;;18.69;71.15
66196;BME280;53000;45.182;5.736;2022-10-22T00:48:52;99264.44;;;18.65;71.09
66196;BME280;53000;45.182;5.736;2022-10-22T00:51:23;99255.19;;;18.59;71.88
66196;BME280;53000;45.182;5.736;2022-10-22T00:53:56;99246.59;;;18.55;71.97
66196;BME280;53000;45.182;5.736;2022-10-22T00:56:24;99248.72;;;18.53;72.08
66196;BME280;53000;45.182;5.736;2022-10-22T00:58:56;99251.66;;;18.52;72.06
66196;BME280;53000;45.182;5.736;2022-10-22T01:01:25;99258.81;;;18.53;72.34
66196;BME280;53000;45.182;5.736;2022-10-22T01:03:51;99240.09;;;18.50;72.10
66196;BME280;53000;45.182;5.736;2022-10-22T01:06:32;99266.16;;;18.59;71.81
66196;BME280;53000;45.182;5.736;2022-10-22T01:17:40;99280.34;;;18.49;72.40
66196;BME280;53000;45.182;5.736;2022-10-22T01:28:50;99268.72;;;18.54;71.98
66196;BME280;53000;45.182;5.736;2022-10-22T01:31:20;99259.88;;;18.52;71.83
66196;BME280;53000;45.182;5.736;2022-10-22T01:33:50;99247.84;;;18.53;72.05
66196;BME280;53000;45.182;5.736;2022-10-22T01:36:18;99248.09;;;18.51;72.22
66196;BME280;53000;45.182;5.736;2022-10-22T01:38:48;99262.78;;;18.57;72.07
66196;BME280;53000;45.182;5.736;2022-10-22T01:41:19;99267.44;;;18.56;71.61
66196;BME280;53000;45.182;5.736;2022-10-22T01:43:45;99267.91;;;18.53;71.83
66196;BME280;53000;45.182;5.736;2022-10-22T01:46:11;99250.88;;;18.45;72.12
66196;BME280;53000;45.182;5.736;2022-10-22T01:51:59;99250.13;;;18.31;72.20
66196;BME280;53000;45.182;5.736;2022-10-22T01:59:56;99262.56;;;18.27;72.86
66196;BME280;53000;45.182;5.736;2022-10-22T02:08:00;99240.56;;;18.08;73.04
66196;BME280;53000;45.182;5.736;2022-10-22T02:10:28;99228.31;;;18.11;73.24
66196;BME280;53000;45.182;5.736;2022-10-22T02:12:54;99241.19;;;18.10;73.45
66196;BME280;53000;45.182;5.736;2022-10-22T02:15:22;99244.94;;;18.16;72.92
66196;BME280;53000;45.182;5.736;2022-10-22T02:17:52;99244.94;;;18.16;73.10
66196;BME280;53000;45.182;5.736;2022-10-22T02:20:27;99242.41;;;18.14;73.90
66196;BME280;53000;45.182;5.736;2022-10-22T02:22:54;99243.06;;;18.10;73.34
66196;BME280;53000;45.182;5.736;2022-10-22T02:25:23;99238.03;;;18.07;73.03
66196;BME280;53000;45.182;5.736;2022-10-22T02:28:00;99235.72;;;18.04;73.82
66196;BME280;53000;45.182;5.736;2022-10-22T02:30:26;99238.47;;;18.04;73.38
66196;BME280;53000;45.182;5.736;2022-10-22T02:33:03;99237.22;;;18.06;72.93
66196;BME280;53000;45.182;5.736;2022-10-22T02:35:32;99227.91;;;18.07;73.30
66196;BME280;53000;45.182;5.736;2022-10-22T02:37:58;99223.28;;;18.08;73.46
66196;BME280;53000;45.182;5.736;2022-10-22T02:40:25;99228.31;;;18.11;73.28
66196;BME280;53000;45.182;5.736;2022-10-22T02:42:51;99234.44;;;18.13;73.27
66196;BME280;53000;45.182;5.736;2022-10-22T02:45:18;99249.13;;;18.18;73.49
66196;BME280;53000;45.182;5.736;2022-10-22T02:47:44;99245.34;;;18.19;72.96
66196;BME280;53000;45.182;5.736;2022-10-22T02:50:09;99249.53;;;18.22;72.71
66196;BME280;53000;45.182;5.736;2022-10-22T02:52:37;99250.63;;;18.21;72.65
66196;BME280;53000;45.182;5.736;2022-10-22T02:55:04;99242.19;;;18.16;72.96
66196;BME280;53000;45.182;5.736;2022-10-22T02:57:32;99228.75;;;18.08;73.45
66196;BME280;53000;45.182;5.736;2022-10-22T02:59:57;99219.69;;;18.07;73.32
66196;BME280;53000;45.182;5.736;2022-10-22T03:02:25;99229.16;;;18.11;73.46
66196;BME280;53000;45.182;5.736;2022-10-22T03:04:53;99242.22;;;18.09;73.56
66196;BME280;53000;45.182;5.736;2022-10-22T03:07:18;99256.13;;;18.08;73.23
66196;BME280;53000;45.182;5.736;2022-10-22T03:09:43;99246.03;;;18.08;73.18
66196;BME280;53000;45.182;5.736;2022-10-22T03:12:09;99259.69;;;18.15;73.01
66196;BME280;53000;45.182;5.736;2022-10-22T03:14:34;99263.91;;;18.17;72.93
66196;BME280;53000;45.182;5.736;2022-10-22T03:17:00;99265.13;;;18.22;72.73
66196;BME280;53000;45.182;5.736;2022-10-22T03:19:26;99268.06;;;18.27;72.50
66196;BME280;53000;45.182;5.736;2022-10-22T03:22:03;99268.47;;;18.30;72.55
66196;BME280;53000;45.182;5.736;2022-10-22T03:24:39;99269.09;;;18.32;72.35
66196;BME280;53000;45.182;5.736;2022-10-22T03:27:12;99266.13;;;18.34;72.15
66196;BME280;53000;45.182;5.736;2022-10-22T03:29:41;99273.91;;;18.37;72.02
66196;BME280;53000;45.182;5.736;2022-10-22T03:32:07;99274.09;;;18.35;72.29
66196;BME280;53000;45.182;5.736;2022-10-22T03:34:40;99280.66;;;18.34;72.49
66196;BME280;53000;45.182;5.736;2022-10-22T03:37:08;99283.41;;;18.34;72.42
66196;BME280;53000;45.182;5.736;2022-10-22T03:39:34;99274.72;;;18.37;72.07
66196;BME280;53000;45.182;5.736;2022-10-22T03:42:04;99293.53;;;18.34;72.22
66196;BME280;53000;45.182;5.736;2022-10-22T03:44:35;99291.16;;;18.37;72.10
66196;BME280;53000;45.182;5.736;2022-10-22T03:47:01;99293.50;;;18.41;72.32
66196;BME280;53000;45.182;5.736;2022-10-22T03:49:29;99288.84;;;18.41;72.20
66196;BME280;53000;45.182;5.736;2022-10-22T03:51:55;99284.81;;;18.44;72.43
66196;BME280;53000;45.182;5.736;2022-10-22T03:54:20;99287.13;;;18.47;72.30
66196;BME280;53000;45.182;5.736;2022-10-22T03:56:45;99301.66;;;18.47;72.19
66196;BME280;53000;45.182;5.736;2022-10-22T03:59:11;99302.03;;;18.51;72.10
66196;BME280;53000;45.182;5.736;2022-10-22T04:01:37;99299.94;;;18.53;72.00
66196;BME280;53000;45.182;5.736;2022-10-22T04:04:03;99297.19;;;18.53;72.01
66196;BME280;53000;45.182;5.736;2022-10-22T04:06:31;99309.63;;;18.55;71.96
66196;BME280;53000;45.182;5.736;2022-10-22T04:08:59;99313.41;;;18.54;71.51
66196;BME280;53000;45.182;5.736;2022-10-22T04:11:33;99316.16;;;18.54;71.96
66196;BME280;53000;45.182;5.736;2022-10-22T04:13:58;99303.94;;;18.50;71.49
66196;BME280;53000;45.182;5.736;2022-10-22T04:16:26;99307.31;;;18.52;71.46
66196;BME280;53000;45.182;5.736;2022-10-22T04:18:59;99313.25;;;18.49;71.66
66196;BME280;53000;45.182;5.736;2022-10-22T04:21:24;99308.81;;;18.48;71.81
66196;BME280;53000;45.182;5.736;2022-10-22T04:23:51;99308.59;;;18.50;71.87
66196;BME280;53000;45.182;5.736;2022-10-22T04:26:21;99297.63;;;18.50;71.78
66196;BME280;53000;45.182;5.736;2022-10-22T04:28:47;99302.72;;;18.46;71.81
66196;BME280;53000;45.182;5.736;2022-10-22T04:31:18;99300.63;;;18.42;71.85
66196;BME280;53000;45.182;5.736;2022-10-22T04:33:44;99310.97;;;18.39;71.86
66196;BME280;53000;45.182;5.736;2022-10-22T04:36:11;99312.25;;;18.37;71.94
66196;BME280;53000;45.182;5.736;2022-10-22T04:38:43;99314.38;;;18.35;71.92
66196;BME280;53000;45.182;5.736;2022-10-22T04:41:12;99318.19;;;18.34;71.75
66196;BME280;53000;45.182;5.736;2022-10-22T04:43:43;99306.00;;;18.30;72.10
66196;BME280;53000;45.182;5.736;2022-10-22T04:46:15;99295.25;;;18.28;72.18
66196;BME280;53000;45.182;5.736;2022-10-22T04:48:46;99307.66;;;18.31;72.28
66196;BME280;53000;45.182;5.736;2022-10-22T04:51:19;99317.56;;;18.32;72.19
66196;BME280;53000;45.182;5.736;2022-10-22T04:53:45;99324.31;;;18.29;72.19
66196;BME280;53000;45.182;5.736;2022-10-22T04:56:22;99313.75;;;18.33;72.21
66196;BME280;53000;45.182;5.736;2022-10-22T04:58:53;99314.84;;;18.32;71.76
66196;BME280;53000;45.182;5.736;2022-10-22T05:03:56;99317.56;;;18.25;71.61
66196;BME280;53000;45.182;5.736;2022-10-22T05:06:23;99318.44;;;18.26;71.74
66196;BME280;53000;45.182;5.736;2022-10-22T05:08:54;99323.06;;;18.25;72.05
66196;BME280;53000;45.182;5.736;2022-10-22T05:11:29;99335.09;;;18.24;71.78
66196;BME280;53000;45.182;5.736;2022-10-22T05:13:59;99341.84;;;18.22;71.51
66196;BME280;53000;45.182;5.736;2022-10-22T05:16:26;99343.75;;;18.21;71.76
66196;BME280;53000;45.182;5.736;2022-10-22T05:18:58;99339.53;;;18.18;71.87
66196;BME280;53000;45.182;5.736;2022-10-22T05:21:27;99336.81;;;18.12;71.88
66196;BME280;53000;45.182;5.736;2022-10-22T05:23:54;99344.00;;;18.13;72.05
66196;BME280;53000;45.182;5.736;2022-10-22T05:26:21;99340.44;;;18.12;72.14
66196;BME280;53000;45.182;5.736;2022-10-22T05:28:48;99358.53;;;18.13;71.88
66196;BME280;53000;45.182;5.736;2022-10-22T05:31:16;99345.53;;;18.02;71.73
66196;BME280;53000;45.182;5.736;2022-10-22T05:33:43;99357.72;;;18.06;71.86
66196;BME280;53000;45.182;5.736;2022-10-22T05:36:18;99360.69;;;17.98;71.85
66196;BME280;53000;45.182;5.736;2022-10-22T05:38:47;99356.09;;;17.85;72.03
66196;BME280;53000;45.182;5.736;2022-10-22T05:41:15;99350.81;;;17.77;72.52
66196;BME280;53000;45.182;5.736;2022-10-22T05:43:41;99355.25;;;17.71;72.31
66196;BME280;53000;45.182;5.736;2022-10-22T05:46:15;99364.34;;;17.65;72.57
66196;BME280;53000;45.182;5.736;2022-10-22T05:48:43;99358.88;;;17.52;72.97
66196;BME280;53000;45.182;5.736;2022-10-22T05:51:11;99373.59;;;17.57;72.67
66196;BME280;53000;45.182;5.736;2022-10-22T05:53:39;99365.81;;;17.54;73.68
66196;BME280;53000;45.182;5.736;2022-10-22T05:56:07;99362.44;;;17.46;73.01
66196;BME280;53000;45.182;5.736;2022-10-22T05:58:36;99367.09;;;17.45;73.11
66196;BME280;53000;45.182;5.736;2022-10-22T06:01:15;99376.75;;;17.48;73.31
66196;BME280;53000;45.182;5.736;2022-10-22T06:03:41;99380.13;;;17.50;73.37
66196;BME280;53000;45.182;5.736;2022-10-22T06:08:38;99386.66;;;17.62;73.17
66196;BME280;53000;45.182;5.736;2022-10-22T06:11:03;99395.91;;;17.68;72.81
66196;BME280;53000;45.182;5.736;2022-10-22T06:13:29;99391.72;;;17.65;72.85
66196;BME280;53000;45.182;5.736;2022-10-22T06:15:59;99399.47;;;17.75;72.86
66196;BME280;53000;45.182;5.736;2022-10-22T06:18:26;99409.38;;;17.76;72.71
66196;BME280;53000;45.182;5.736;2022-10-22T06:20:52;99402.00;;;17.76;72.62
66196;BME280;53000;45.182;5.736;2022-10-22T06:23:17;99398.19;;;17.77;72.67
66196;BME280;53000;45.182;5.736;2022-10-22T06:25:55;99402.19;;;17.82;72.55
66196;BME280;53000;45.182;5.736;2022-10-22T06:28:28;99398.44;;;17.83;72.24
66196;BME280;53000;45.182;5.736;2022-10-22T06:30:53;99404.56;;;17.85;72.38
66196;BME280;53000;45.182;5.736;2022-10-22T06:33:19;99400.13;;;17.84;72.29
66196;BME280;53000;45.182;5.736;2022-10-22T06:35:52;99404.31;;;17.86;72.22
66196;BME280;53000;45.182;5.736;2022-10-22T06:38:20;99408.13;;;17.85;72.22
66196;BME280;53000;45.182;5.736;2022-10-22T06:40:45;99415.50;;;17.85;72.32
66196;BME280;53000;45.182;5.736;2022-10-22T06:43:16;99410.03;;;17.85;72.08
66196;BME280;53000;45.182;5.736;2022-10-22T06:45:47;99420.34;;;17.83;71.93
66196;BME280;53000;45.182;5.736;2022-10-22T06:48:12;99420.13;;;17.84;71.58
66196;BME280;53000;45.182;5.736;2022-10-22T06:50:37;99425.84;;;17.83;72.01
66196;BME280;53000;45.182;5.736;2022-10-22T06:53:03;99421.63;;;17.87;71.97
66196;BME280;53000;45.182;5.736;2022-10-22T06:55:31;99435.28;;;17.93;71.77
66196;BME280;53000;45.182;5.736;2022-10-22T06:57:56;99432.94;;;17.97;71.75
66196;BME280;53000;45.182;5.736;2022-10-22T07:00:22;99440.50;;;18.02;71.57
66196;BME280;53000;45.182;5.736;2022-10-22T07:02:53;99444.31;;;18.07;71.66
66196;BME280;53000;45.182;5.736;2022-10-22T07:05:19;99443.91;;;18.10;71.54
66196;BME280;53000;45.182;5.736;2022-10-22T07:07:45;99442.38;;;18.14;71.33
66196;BME280;53000;45.182;5.736;2022-10-22T07:10:12;99450.19;;;18.17;71.31
66196;BME280;53000;45.182;5.736;2022-10-22T07:12:38;99442.59;;;18.19;70.96
66196;BME280;53000;45.182;5.736;2022-10-22T07:15:03;99441.31;;;18.22;71.26
66196;BME280;53000;45.182;5.736;2022-10-22T07:17:29;99438.38;;;18.24;71.17
66196;BME280;53000;45.182;5.736;2022-10-22T07:19:56;99443.41;;;18.27;71.15
66196;BME280;53000;45.182;5.736;2022-10-22T07:22:22;99444.25;;;18.27;71.11
66196;BME280;53000;45.182;5.736;2022-10-22T07:24:49;99444.25;;;18.27;70.82
66196;BME280;53000;45.182;5.736;2022-10-22T07:27:15;99453.53;;;18.26;70.93
66196;BME280;53000;45.182;5.736;2022-10-22T07:29:42;99463.41;;;18.27;71.10
66196;BME280;53000;45.182;5.736;2022-10-22T07:32:08;99469.97;;;18.26;70.83
66196;BME280;53000;45.182;5.736;2022-10-22T07:34:33;99466.59;;;18.31;70.96
66196;BME280;53000;45.182;5.736;2022-10-22T07:37:01;99465.72;;;18.37;71.07
66196;BME280;53000;45.182;5.736;2022-10-22T07:39:27;99464.88;;;18.43;70.74
66196;BME280;53000;45.182;5.736;2022-10-22T07:41:55;99464.41;;;18.53;70.75
66196;BME280;53000;45.182;5.736;2022-10-22T07:44:20;99477.03;;;18.60;70.66
66196;BME280;53000;45.182;5.736;2022-10-22T07:46:46;99479.13;;;18.65;70.37
66196;BME280;53000;45.182;5.736;2022-10-22T07:49:11;99481.44;;;18.68;69.95
66196;BME280;53000;45.182;5.736;2022-10-22T07:51:39;99481.00;;;18.71;70.13
66196;BME280;53000;45.182;5.736;2022-10-22T07:54:04;99487.94;;;18.74;70.14
66196;BME280;53000;45.182;5.736;2022-10-22T07:56:32;99482.69;;;18.79;70.10
66196;BME280;53000;45.182;5.736;2022-10-22T07:58:57;99491.09;;;18.84;69.87
66196;BME280;53000;45.182;5.736;2022-10-22T08:01:22;99492.75;;;18.85;69.49
66196;BME280;53000;45.182;5.736;2022-10-22T08:03:48;99490.25;;;18.84;69.61
66196;BME280;53000;45.182;5.736;2022-10-22T08:06:22;99486.69;;;18.83;69.33
66196;BME280;53000;45.182;5.736;2022-10-22T08:08:48;99496.56;;;18.84;69.45
66196;BME280;53000;45.182;5.736;2022-10-22T08:11:18;99498.06;;;18.80;69.14
66196;BME280;53000;45.182;5.736;2022-10-22T08:13:43;99496.41;;;18.79;69.86
66196;BME280;53000;45.182;5.736;2022-10-22T08:16:11;99498.06;;;18.80;69.42
66196;BME280;53000;45.182;5.736;2022-10-22T08:18:37;99492.75;;;18.85;69.70
66196;BME280;53000;45.182;5.736;2022-10-22T08:21:03;99500.50;;;19.02;69.65
66196;BME280;53000;45.182;5.736;2022-10-22T08:23:36;99509.28;;;19.17;69.24
66196;BME280;53000;45.182;5.736;2022-10-22T08:26:06;99501.97;;;19.36;68.81
66196;BME280;53000;45.182;5.736;2022-10-22T08:28:32;99503.03;;;19.67;68.56
66196;BME280;53000;45.182;5.736;2022-10-22T08:31:03;99502.00;;;19.93;67.51
66196;BME280;53000;45.182;5.736;2022-10-22T08:33:28;99501.03;;;20.06;67.57
66196;BME280;53000;45.182;5.736;2022-10-22T08:35:56;99499.88;;;20.13;66.38
66196;BME280;53000;45.182;5.736;2022-10-22T08:38:24;99498.22;;;20.12;65.46
66196;BME280;53000;45.182;5.736;2022-10-22T08:41:02;99497.16;;;20.13;66.09
66196;BME280;53000;45.182;5.736;2022-10-22T08:44:01;99503.31;;;20.09;65.78
66196;BME280;53000;45.182;5.736;2022-10-22T08:49:26;99506.25;;;20.32;64.89
66196;BME280;53000;45.182;5.736;2022-10-22T08:51:54;99510.78;;;20.82;65.39
66196;BME280;53000;45.182;5.736;2022-10-22T09:00:24;99493.22;;;23.54;63.07
66196;BME280;53000;45.182;5.736;2022-10-22T09:05:21;99496.22;;;25.47;59.56
66196;BME280;53000;45.182;5.736;2022-10-22T09:07:53;99502.44;;;26.24;57.44
66196;BME280;53000;45.182;5.736;2022-10-22T09:10:30;99488.38;;;26.94;56.56
66196;BME280;53000;45.182;5.736;2022-10-22T09:12:59;99488.25;;;27.52;53.46
66196;BME280;53000;45.182;5.736;2022-10-22T09:15:24;99488.56;;;27.81;51.62
66196;BME280;53000;45.182;5.736;2022-10-22T09:17:57;99497.19;;;28.21;52.93
66196;BME280;53000;45.182;5.736;2022-10-22T09:20:39;99488.44;;;28.68;48.51
66196;BME280;53000;45.182;5.736;2022-10-22T09:25:38;99507.19;;;29.62;49.79
66196;BME280;53000;45.182;5.736;2022-10-22T09:28:08;99500.28;;;29.94;48.13
66196;BME280;53000;45.182;5.736;2022-10-22T09:30:38;99498.72;;;30.12;47.01
66196;BME280;53000;45.182;5.736;2022-10-22T09:33:25;99494.94;;;30.32;45.79
66196;BME280;53000;45.182;5.736;2022-10-22T09:36:16;99500.59;;;30.51;46.09
66196;BME280;53000;45.182;5.736;2022-10-22T09:38:47;99499.47;;;30.76;45.22
66196;BME280;53000;45.182;5.736;2022-10-22T09:41:16;99492.34;;;30.89;43.49
66196;BME280;53000;45.182;5.736;2022-10-22T09:43:48;99489.19;;;30.95;42.83
66196;BME280;53000;45.182;5.736;2022-10-22T09:46:18;99492.66;;;31.06;42.91
66196;BME280;53000;45.182;5.736;2022-10-22T09:49:04;99488.00;;;31.21;42.75
66196;BME280;53000;45.182;5.736;2022-10-22T09:51:47;99484.41;;;31.39;40.16
66196;BME280;53000;45.182;5.736;2022-10-22T09:54:37;99484.56;;;31.48;39.17
66196;BME280;53000;45.182;5.736;2022-10-22T09:59:36;99490.78;;;31.96;39.92
66196;BME280;53000;45.182;5.736;2022-10-22T10:02:09;99480.09;;;31.98;38.73
66196;BME280;53000;45.182;5.736;2022-10-22T10:04:41;99481.34;;;31.92;38.41
66196;BME280;53000;45.182;5.736;2022-10-22T10:07:17;99470.88;;;31.98;38.73
66196;BME280;53000;45.182;5.736;2022-10-22T10:09:43;99471.88;;;32.07;37.55
66196;BME280;53000;45.182;5.736;2022-10-22T10:17:49;99473.13;;;31.96;35.56
66196;BME280;53000;45.182;5.736;2022-10-22T10:20:30;99480.88;;;31.85;36.62
66196;BME280;53000;45.182;5.736;2022-10-22T10:23:26;99475.06;;;31.82;34.79
66196;BME280;53000;45.182;5.736;2022-10-22T10:26:20;99475.09;;;31.95;37.74
66196;BME280;53000;45.182;5.736;2022-10-22T10:34:45;99475.81;;;31.87;37.13
66196;BME280;53000;45.182;5.736;2022-10-22T10:37:29;99468.31;;;32.02;37.17
66196;BME280;53000;45.182;5.736;2022-10-22T10:42:43;99473.38;;;32.46;36.92
66196;BME280;53000;45.182;5.736;2022-10-22T10:48:00;99457.09;;;32.76;36.02
66196;BME280;53000;45.182;5.736;2022-10-22T11:04:28;99444.41;;;32.65;35.50
66196;BME280;53000;45.182;5.736;2022-10-22T11:07:04;99439.97;;;32.64;35.21
66196;BME280;53000;45.182;5.736;2022-10-22T11:09:47;99435.06;;;32.69;34.70
66196;BME280;53000;45.182;5.736;2022-10-22T11:12:20;99433.00;;;32.75;33.88
66196;BME280;53000;45.182;5.736;2022-10-22T11:17:34;99426.56;;;32.74;33.96
66196;BME280;53000;45.182;5.736;2022-10-22T11:20:14;99435.31;;;32.59;32.36
66196;BME280;53000;45.182;5.736;2022-10-22T11:22:56;99427.28;;;32.52;33.29
66196;BME280;53000;45.182;5.736;2022-10-22T11:25:33;99405.41;;;32.27;32.91
66196;BME280;53000;45.182;5.736;2022-10-22T11:28:31;99411.41;;;31.87;34.62
66196;BME280;53000;45.182;5.736;2022-10-22T11:31:03;99396.53;;;31.59;34.28
66196;BME280;53000;45.182;5.736;2022-10-22T11:33:41;99397.75;;;31.34;35.27
66196;BME280;53000;45.182;5.736;2022-10-22T11:36:11;99389.59;;;31.18;35.05
66196;BME280;53000;45.182;5.736;2022-10-22T11:38:40;99388.50;;;31.01;36.02
66196;BME280;53000;45.182;5.736;2022-10-22T11:41:13;99381.03;;;30.72;35.77
66196;BME280;53000;45.182;5.736;2022-10-22T11:48:45;99379.41;;;29.99;36.37
66196;BME280;53000;45.182;5.736;2022-10-22T11:51:36;99369.94;;;29.94;37.14
66196;BME280;53000;45.182;5.736;2022-10-22T12:02:37;99355.66;;;30.49;37.04
66196;BME280;53000;45.182;5.736;2022-10-22T12:07:57;99345.72;;;30.81;35.82
66196;BME280;53000;45.182;5.736;2022-10-22T12:10:34;99344.69;;;30.96;36.72
66196;BME280;53000;45.182;5.736;2022-10-22T12:13:12;99337.03;;;31.02;36.62
66196;BME280;53000;45.182;5.736;2022-10-22T12:15:51;99332.44;;;31.11;36.57
66196;BME280;53000;45.182;5.736;2022-10-22T12:18:26;99330.34;;;31.16;36.50
66196;BME280;53000;45.182;5.736;2022-10-22T12:20:54;99328.19;;;31.13;35.58
66196;BME280;53000;45.182;5.736;2022-10-22T12:23:27;99315.66;;;31.11;35.25
66196;BME280;53000;45.182;5.736;2022-10-22T12:25:56;99314.59;;;31.07;35.54
66196;BME280;53000;45.182;5.736;2022-10-22T12:28:39;99310.75;;;31.03;35.83
66196;BME280;53000;45.182;5.736;2022-10-22T12:31:15;99303.47;;;31.02;36.01
66196;BME280;53000;45.182;5.736;2022-10-22T12:33:44;99300.09;;;31.05;35.00
66196;BME280;53000;45.182;5.736;2022-10-22T12:36:18;99304.16;;;31.12;35.43
66196;BME280;53000;45.182;5.736;2022-10-22T12:38:46;99297.19;;;31.10;35.05
66196;BME280;53000;45.182;5.736;2022-10-22T12:41:12;99290.78;;;31.09;35.17
66196;BME280;53000;45.182;5.736;2022-10-22T12:43:38;99285.44;;;31.13;34.75
66196;BME280;53000;45.182;5.736;2022-10-22T12:46:14;99280.66;;;31.13;34.81
66196;BME280;53000;45.182;5.736;2022-10-22T12:48:44;99275.19;;;31.22;34.73
66196;BME280;53000;45.182;5.736;2022-10-22T12:51:15;99272.69;;;31.21;35.04
66196;BME280;53000;45.182;5.736;2022-10-22T12:53:45;99265.47;;;31.20;34.75
66196;BME280;53000;45.182;5.736;2022-10-22T12:56:24;99254.34;;;31.14;34.71
66196;BME280;53000;45.182;5.736;2022-10-22T12:58:58;99261.59;;;31.15;34.79
66196;BME280;53000;45.182;5.736;2022-10-22T13:01:26;99253.66;;;31.23;34.60
66196;BME280;53000;45.182;5.736;2022-10-22T13:09:59;99233.44;;;31.26;34.19
66196;BME280;53000;45.182;5.736;2022-10-22T13:12:33;99231.38;;;31.17;34.13
66196;BME280;53000;45.182;5.736;2022-10-22T13:15:21;99238.38;;;31.15;34.79
66196;BME280;53000;45.182;5.736;2022-10-22T13:17:47;99230.53;;;31.17;34.81
66196;BME280;53000;45.182;5.736;2022-10-22T13:20:22;99232.94;;;31.24;34.76
66196;BME280;53000;45.182;5.736;2022-10-22T13:25:35;99216.94;;;30.96;35.18
66196;BME280;53000;45.182;5.736;2022-10-22T13:30:49;99225.03;;;30.79;34.15
66196;BME280;53000;45.182;5.736;2022-10-22T13:33:29;99225.03;;;30.60;34.70
66196;BME280;53000;45.182;5.736;2022-10-22T13:36:01;99213.19;;;30.49;35.10
66196;BME280;53000;45.182;5.736;2022-10-22T13:38:27;99206.13;;;30.38;34.73
66196;BME280;53000;45.182;5.736;2022-10-22T13:40:53;99204.81;;;30.30;34.97
66196;BME280;53000;45.182;5.736;2022-10-22T13:43:21;99206.81;;;30.25;34.87
66196;BME280;53000;45.182;5.736;2022-10-22T13:45:52;99194.81;;;30.24;34.61
66196;BME280;53000;45.182;5.736;2022-10-22T13:48:22;99192.75;;;30.35;35.03
66196;BME280;53000;45.182;5.736;2022-10-22T13:50:49;99192.31;;;30.47;34.56
66196;BME280;53000;45.182;5.736;2022-10-22T13:53:17;99186.72;;;30.47;34.77
66196;BME280;53000;45.182;5.736;2022-10-22T13:55:44;99181.25;;;30.55;34.94
66196;BME280;53000;45.182;5.736;2022-10-22T14:00:41;99181.16;;;30.23;34.42
66196;BME280;53000;45.182;5.736;2022-10-22T14:03:10;99184.81;;;30.23;34.66
66196;BME280;53000;45.182;5.736;2022-10-22T14:05:41;99176.09;;;30.25;34.00
66196;BME280;53000;45.182;5.736;2022-10-22T14:08:14;99174.75;;;30.22;34.34
66196;BME280;53000;45.182;5.736;2022-10-22T14:10:43;99167.28;;;30.17;34.15
66196;BME280;53000;45.182;5.736;2022-10-22T14:13:11;99164.66;;;30.07;34.78
66196;BME280;53000;45.182;5.736;2022-10-22T14:15:37;99171.13;;;29.84;34.44
66196;BME280;53000;45.182;5.736;2022-10-22T14:18:07;99163.41;;;29.51;35.39
66196;BME280;53000;45.182;5.736;2022-10-22T14:20:39;99163.22;;;29.19;35.50
66196;BME280;53000;45.182;5.736;2022-10-22T14:23:27;99171.00;;;28.92;36.31
66196;BME280;53000;45.182;5.736;2022-10-22T14:25:56;99163.97;;;28.71;36.50
66196;BME280;53000;45.182;5.736;2022-10-22T14:28:22;99163.84;;;28.52;37.02
66196;BME280;53000;45.182;5.736;2022-10-22T14:30:48;99164.50;;;28.33;37.38
66196;BME280;53000;45.182;5.736;2022-10-22T14:35:46;99159.03;;;28.18;37.67
66196;BME280;53000;45.182;5.736;2022-10-22T14:38:14;99154.84;;;28.21;37.70
66196;BME280;53000;45.182;5.736;2022-10-22T14:40:43;99157.09;;;28.19;37.84
66196;BME280;53000;45.182;5.736;2022-10-22T14:43:17;99146.00;;;28.13;38.07
66196;BME280;53000;45.182;5.736;2022-10-22T14:45:52;99146.53;;;28.16;38.14
66196;BME280;53000;45.182;5.736;2022-10-22T14:48:17;99149.31;;;28.16;38.09
66196;BME280;53000;45.182;5.736;2022-10-22T14:50:46;99142.94;;;28.10;37.98
66196;BME280;53000;45.182;5.736;2022-10-22T14:53:12;99150.50;;;28.04;38.06
66196;BME280;53000;45.182;5.736;2022-10-22T14:55:39;99145.00;;;27.94;38.22
66196;BME280;53000;45.182;5.736;2022-10-22T14:58:07;99146.44;;;27.81;38.42
66196;BME280;53000;45.182;5.736;2022-10-22T15:00:33;99152.94;;;27.56;38.83
66196;BME280;53000;45.182;5.736;2022-10-22T15:03:01;99148.00;;;27.38;38.48
66196;BME280;53000;45.182;5.736;2022-10-22T15:05:28;99146.38;;;27.16;39.12
66196;BME280;53000;45.182;5.736;2022-10-22T15:08:01;99140.88;;;26.96;39.48
66196;BME280;53000;45.182;5.736;2022-10-22T15:10:26;99145.38;;;26.76;39.97
66196;BME280;53000;45.182;5.736;2022-10-22T15:12:54;99140.09;;;26.59;40.38
66196;BME280;53000;45.182;5.736;2022-10-22T15:15:24;99142.28;;;26.47;40.48